Webcam Richtung Westen

Webcam27

Webcam Richtung Norden

Webcam36

Webcam Richtung Osten

Webcam09

Wetter(Würzburg):
270000Z AUTO 01002G03KT 40KM SCT290 BKN310 09/07 Q1035
		
Wed 27.05.2020, 00:00 UTC

Sichtweite bis zu 40 km
Wind aus 10° mit 02kt, in Böen bis zu 03kt
einige Wolken (3-4 Achtel) bei 29000 Fuß
unterbrochene Wolkendecke (5-7 Achtel) bei 31000 Fuß
Temperatur: 9 °C
Taupunkt: 7 °C
QNH: 1035 hPa
                         Heute        Morgen
                         27.05        28.05
--------------------------------------------
Beginn der Dämmerung     02:39        02:38
Sonnenaufgang            03:21        03:20
Sonnenuntergang          19:14        19:15
Ende der Dämmerung       19:55        19:57

Alle Zeiten in UTC